sensor_id;sensor_type;location;lat;lon;timestamp;temperature;humidity
52036;DHT22;38046;49.448;32.074;2023-01-08T00:01:09;-2.80;63.30
52036;DHT22;38046;49.448;32.074;2023-01-08T00:03:37;-2.70;63.10
52036;DHT22;38046;49.448;32.074;2023-01-08T00:06:05;-2.60;62.70
52036;DHT22;38046;49.448;32.074;2023-01-08T00:08:31;-2.60;62.60
52036;DHT22;38046;49.448;32.074;2023-01-08T00:10:57;-2.50;62.30
52036;DHT22;38046;49.448;32.074;2023-01-08T00:13:23;-2.50;62.30
52036;DHT22;38046;49.448;32.074;2023-01-08T00:15:49;-2.50;62.10
52036;DHT22;38046;49.448;32.074;2023-01-08T00:18:15;-2.40;62.10
52036;DHT22;38046;49.448;32.074;2023-01-08T00:20:41;-2.40;61.90
52036;DHT22;38046;49.448;32.074;2023-01-08T00:23:15;-2.40;62.40
52036;DHT22;38046;49.448;32.074;2023-01-08T00:25:41;-2.30;61.70
52036;DHT22;38046;49.448;32.074;2023-01-08T00:28:06;-2.30;61.60
52036;DHT22;38046;49.448;32.074;2023-01-08T00:30:32;-2.30;61.70
52036;DHT22;38046;49.448;32.074;2023-01-08T00:32:58;-2.30;61.60
52036;DHT22;38046;49.448;32.074;2023-01-08T00:35:23;-2.30;61.40
52036;DHT22;38046;49.448;32.074;2023-01-08T00:37:49;-2.30;61.30
52036;DHT22;38046;49.448;32.074;2023-01-08T00:40:15;-2.30;61.20
52036;DHT22;38046;49.448;32.074;2023-01-08T00:42:40;-2.30;61.20
52036;DHT22;38046;49.448;32.074;2023-01-08T00:45:06;-2.30;61.10
52036;DHT22;38046;49.448;32.074;2023-01-08T00:47:32;-2.30;61.20
52036;DHT22;38046;49.448;32.074;2023-01-08T00:49:58;-2.30;61.10
52036;DHT22;38046;49.448;32.074;2023-01-08T00:52:24;-2.30;61.00
52036;DHT22;38046;49.448;32.074;2023-01-08T00:54:49;-2.30;60.90
52036;DHT22;38046;49.448;32.074;2023-01-08T00:57:15;-2.30;60.90
52036;DHT22;38046;49.448;32.074;2023-01-08T00:59:41;-2.30;60.90
52036;DHT22;38046;49.448;32.074;2023-01-08T01:02:06;-2.30;60.80
52036;DHT22;38046;49.448;32.074;2023-01-08T01:04:32;-2.30;60.80
52036;DHT22;38046;49.448;32.074;2023-01-08T01:06:58;-2.30;60.80
52036;DHT22;38046;49.448;32.074;2023-01-08T01:09:23;-2.30;60.90
52036;DHT22;38046;49.448;32.074;2023-01-08T01:11:49;-2.30;61.00
52036;DHT22;38046;49.448;32.074;2023-01-08T01:14:15;-2.30;61.20
52036;DHT22;38046;49.448;32.074;2023-01-08T01:16:41;-2.20;61.00
52036;DHT22;38046;49.448;32.074;2023-01-08T01:19:08;-2.20;61.00
52036;DHT22;38046;49.448;32.074;2023-01-08T01:21:34;-2.10;60.80
52036;DHT22;38046;49.448;32.074;2023-01-08T01:24:02;-2.20;60.50
52036;DHT22;38046;49.448;32.074;2023-01-08T01:26:29;-2.20;60.60
52036;DHT22;38046;49.448;32.074;2023-01-08T01:28:56;-2.20;60.60
52036;DHT22;38046;49.448;32.074;2023-01-08T01:31:22;-2.20;60.70
52036;DHT22;38046;49.448;32.074;2023-01-08T01:33:49;-2.20;60.80
52036;DHT22;38046;49.448;32.074;2023-01-08T01:36:16;-2.20;60.70
52036;DHT22;38046;49.448;32.074;2023-01-08T01:38:47;-2.20;60.70
52036;DHT22;38046;49.448;32.074;2023-01-08T01:41:22;-2.20;60.70
52036;DHT22;38046;49.448;32.074;2023-01-08T01:43:49;-2.20;60.80
52036;DHT22;38046;49.448;32.074;2023-01-08T01:48:48;-2.20;60.40
52036;DHT22;38046;49.448;32.074;2023-01-08T01:51:15;-2.20;60.40
52036;DHT22;38046;49.448;32.074;2023-01-08T01:53:41;-2.30;60.20
52036;DHT22;38046;49.448;32.074;2023-01-08T01:56:07;-2.40;60.20
52036;DHT22;38046;49.448;32.074;2023-01-08T01:58:33;-2.50;60.20
52036;DHT22;38046;49.448;32.074;2023-01-08T02:01:03;-2.50;60.40
52036;DHT22;38046;49.448;32.074;2023-01-08T02:03:33;-2.50;60.60
52036;DHT22;38046;49.448;32.074;2023-01-08T02:11:33;-2.50;60.40
52036;DHT22;38046;49.448;32.074;2023-01-08T02:14:15;-2.60;60.10
52036;DHT22;38046;49.448;32.074;2023-01-08T02:16:49;-2.60;60.10
52036;DHT22;38046;49.448;32.074;2023-01-08T02:24:49;-2.70;60.20
52036;DHT22;38046;49.448;32.074;2023-01-08T02:27:17;-2.70;60.30
52036;DHT22;38046;49.448;32.074;2023-01-08T02:29:44;-2.70;59.80
52036;DHT22;38046;49.448;32.074;2023-01-08T02:32:11;-2.80;59.70
52036;DHT22;38046;49.448;32.074;2023-01-08T02:34:37;-2.90;59.80
52036;DHT22;38046;49.448;32.074;2023-01-08T02:37:03;-3.00;60.00
52036;DHT22;38046;49.448;32.074;2023-01-08T02:48:01;-3.30;60.40
52036;DHT22;38046;49.448;32.074;2023-01-08T02:50:32;-3.30;60.50
52036;DHT22;38046;49.448;32.074;2023-01-08T02:55:35;-3.60;60.30
52036;DHT22;38046;49.448;32.074;2023-01-08T02:58:03;-3.70;60.80
52036;DHT22;38046;49.448;32.074;2023-01-08T03:00:30;-3.70;61.00
52036;DHT22;38046;49.448;32.074;2023-01-08T03:03:08;-3.80;61.30
52036;DHT22;38046;49.448;32.074;2023-01-08T03:05:37;-3.70;61.30
52036;DHT22;38046;49.448;32.074;2023-01-08T03:08:04;-3.70;61.80
52036;DHT22;38046;49.448;32.074;2023-01-08T03:10:30;-3.70;61.10
52036;DHT22;38046;49.448;32.074;2023-01-08T03:13:11;-3.80;61.00
52036;DHT22;38046;49.448;32.074;2023-01-08T03:15:46;-3.70;61.40
52036;DHT22;38046;49.448;32.074;2023-01-08T03:18:18;-3.70;61.40
52036;DHT22;38046;49.448;32.074;2023-01-08T03:20:46;-3.70;61.20
52036;DHT22;38046;49.448;32.074;2023-01-08T03:23:14;-3.70;61.10
52036;DHT22;38046;49.448;32.074;2023-01-08T03:25:43;-3.60;61.20
52036;DHT22;38046;49.448;32.074;2023-01-08T03:28:23;-3.60;61.20
52036;DHT22;38046;49.448;32.074;2023-01-08T03:30:55;-3.60;60.90
52036;DHT22;38046;49.448;32.074;2023-01-08T03:33:23;-3.60;60.90
52036;DHT22;38046;49.448;32.074;2023-01-08T03:35:51;-3.60;60.90
52036;DHT22;38046;49.448;32.074;2023-01-08T03:38:25;-3.70;61.00
52036;DHT22;38046;49.448;32.074;2023-01-08T03:40:56;-3.70;61.20
52036;DHT22;38046;49.448;32.074;2023-01-08T03:43:24;-3.80;61.00
52036;DHT22;38046;49.448;32.074;2023-01-08T03:45:56;-3.70;61.30
52036;DHT22;38046;49.448;32.074;2023-01-08T03:48:23;-3.70;61.30
52036;DHT22;38046;49.448;32.074;2023-01-08T03:50:49;-3.70;61.30
52036;DHT22;38046;49.448;32.074;2023-01-08T03:53:15;-3.60;61.30
52036;DHT22;38046;49.448;32.074;2023-01-08T03:55:41;-3.50;61.30
52036;DHT22;38046;49.448;32.074;2023-01-08T03:58:07;-3.50;61.00
52036;DHT22;38046;49.448;32.074;2023-01-08T04:00:33;-3.40;60.90
52036;DHT22;38046;49.448;32.074;2023-01-08T04:02:58;-3.40;60.70
52036;DHT22;38046;49.448;32.074;2023-01-08T04:05:24;-3.50;60.20
52036;DHT22;38046;49.448;32.074;2023-01-08T04:07:49;-3.50;60.00
52036;DHT22;38046;49.448;32.074;2023-01-08T04:10:15;-3.70;59.60
52036;DHT22;38046;49.448;32.074;2023-01-08T04:12:42;-3.80;60.10
52036;DHT22;38046;49.448;32.074;2023-01-08T04:15:08;-3.90;59.70
52036;DHT22;38046;49.448;32.074;2023-01-08T04:17:34;-4.00;59.90
52036;DHT22;38046;49.448;32.074;2023-01-08T04:19:59;-4.00;60.10
52036;DHT22;38046;49.448;32.074;2023-01-08T04:22:25;-4.00;60.10
52036;DHT22;38046;49.448;32.074;2023-01-08T04:24:50;-4.00;60.80
52036;DHT22;38046;49.448;32.074;2023-01-08T04:27:16;-3.90;60.10
52036;DHT22;38046;49.448;32.074;2023-01-08T04:29:42;-3.90;60.20
52036;DHT22;38046;49.448;32.074;2023-01-08T04:32:07;-3.90;60.20
52036;DHT22;38046;49.448;32.074;2023-01-08T04:34:33;-3.80;60.40
52036;DHT22;38046;49.448;32.074;2023-01-08T04:36:59;-3.70;60.30
52036;DHT22;38046;49.448;32.074;2023-01-08T04:39:26;-3.70;60.30
52036;DHT22;38046;49.448;32.074;2023-01-08T04:41:51;-3.70;60.50
52036;DHT22;38046;49.448;32.074;2023-01-08T04:44:17;-3.70;60.10
52036;DHT22;38046;49.448;32.074;2023-01-08T04:46:43;-3.60;60.00
52036;DHT22;38046;49.448;32.074;2023-01-08T04:49:10;-3.60;60.00
52036;DHT22;38046;49.448;32.074;2023-01-08T04:51:35;-3.60;60.00
52036;DHT22;38046;49.448;32.074;2023-01-08T04:54:01;-3.60;60.00
52036;DHT22;38046;49.448;32.074;2023-01-08T04:56:26;-3.50;60.00
52036;DHT22;38046;49.448;32.074;2023-01-08T04:58:52;-3.50;60.20
52036;DHT22;38046;49.448;32.074;2023-01-08T05:01:23;-3.40;60.00
52036;DHT22;38046;49.448;32.074;2023-01-08T05:03:57;-3.40;59.90
52036;DHT22;38046;49.448;32.074;2023-01-08T05:06:23;-3.40;59.60
52036;DHT22;38046;49.448;32.074;2023-01-08T05:08:49;-3.40;59.70
52036;DHT22;38046;49.448;32.074;2023-01-08T05:11:14;-3.40;59.60
52036;DHT22;38046;49.448;32.074;2023-01-08T05:13:40;-3.40;59.70
52036;DHT22;38046;49.448;32.074;2023-01-08T05:16:06;-3.40;59.60
52036;DHT22;38046;49.448;32.074;2023-01-08T05:18:32;-3.40;59.50
52036;DHT22;38046;49.448;32.074;2023-01-08T05:21:02;-3.40;59.50
52036;DHT22;38046;49.448;32.074;2023-01-08T05:23:29;-3.50;59.50
52036;DHT22;38046;49.448;32.074;2023-01-08T05:25:59;-3.50;59.60
52036;DHT22;38046;49.448;32.074;2023-01-08T05:28:26;-3.50;59.90
52036;DHT22;38046;49.448;32.074;2023-01-08T05:30:52;-3.50;60.00
52036;DHT22;38046;49.448;32.074;2023-01-08T05:33:18;-3.50;60.30
52036;DHT22;38046;49.448;32.074;2023-01-08T05:35:44;-3.50;60.50
52036;DHT22;38046;49.448;32.074;2023-01-08T05:38:09;-3.60;60.60
52036;DHT22;38046;49.448;32.074;2023-01-08T05:40:35;-3.60;60.60
52036;DHT22;38046;49.448;32.074;2023-01-08T05:43:01;-3.80;60.80
52036;DHT22;38046;49.448;32.074;2023-01-08T05:45:27;-3.80;61.30
52036;DHT22;38046;49.448;32.074;2023-01-08T05:47:54;-3.90;61.60
52036;DHT22;38046;49.448;32.074;2023-01-08T05:50:19;-3.90;61.80
52036;DHT22;38046;49.448;32.074;2023-01-08T05:52:45;-3.80;62.10
52036;DHT22;38046;49.448;32.074;2023-01-08T05:55:11;-3.80;62.10
52036;DHT22;38046;49.448;32.074;2023-01-08T05:57:37;-3.70;62.30
52036;DHT22;38046;49.448;32.074;2023-01-08T06:00:04;-3.70;62.20
52036;DHT22;38046;49.448;32.074;2023-01-08T06:02:31;-3.60;62.00
52036;DHT22;38046;49.448;32.074;2023-01-08T06:04:56;-3.60;61.90
52036;DHT22;38046;49.448;32.074;2023-01-08T06:07:22;-3.60;62.00
52036;DHT22;38046;49.448;32.074;2023-01-08T06:09:47;-3.60;62.00
52036;DHT22;38046;49.448;32.074;2023-01-08T06:12:13;-3.50;62.10
52036;DHT22;38046;49.448;32.074;2023-01-08T06:14:39;-3.50;61.90
52036;DHT22;38046;49.448;32.074;2023-01-08T06:17:04;-3.50;61.90
52036;DHT22;38046;49.448;32.074;2023-01-08T06:19:30;-3.50;61.90
52036;DHT22;38046;49.448;32.074;2023-01-08T06:21:56;-3.50;62.00
52036;DHT22;38046;49.448;32.074;2023-01-08T06:24:21;-3.50;62.20
52036;DHT22;38046;49.448;32.074;2023-01-08T06:26:47;-3.50;62.30
52036;DHT22;38046;49.448;32.074;2023-01-08T06:29:12;-3.40;62.20
52036;DHT22;38046;49.448;32.074;2023-01-08T06:31:38;-3.40;62.30
52036;DHT22;38046;49.448;32.074;2023-01-08T06:34:04;-3.30;62.10
52036;DHT22;38046;49.448;32.074;2023-01-08T06:36:29;-3.30;61.90
52036;DHT22;38046;49.448;32.074;2023-01-08T06:38:55;-3.20;61.60
52036;DHT22;38046;49.448;32.074;2023-01-08T06:41:21;-3.30;61.40
52036;DHT22;38046;49.448;32.074;2023-01-08T06:43:46;-3.30;61.50
52036;DHT22;38046;49.448;32.074;2023-01-08T06:46:12;-3.20;61.60
52036;DHT22;38046;49.448;32.074;2023-01-08T06:48:39;-3.20;61.60
52036;DHT22;38046;49.448;32.074;2023-01-08T06:51:05;-3.10;61.40
52036;DHT22;38046;49.448;32.074;2023-01-08T06:53:31;-3.10;61.10
52036;DHT22;38046;49.448;32.074;2023-01-08T06:55:57;-3.00;60.60
52036;DHT22;38046;49.448;32.074;2023-01-08T06:58:24;-3.00;60.50
52036;DHT22;38046;49.448;32.074;2023-01-08T07:00:50;-3.00;60.10
52036;DHT22;38046;49.448;32.074;2023-01-08T07:03:16;-3.10;59.90
52036;DHT22;38046;49.448;32.074;2023-01-08T07:05:41;-3.10;59.70
52036;DHT22;38046;49.448;32.074;2023-01-08T07:08:14;-3.20;59.20
52036;DHT22;38046;49.448;32.074;2023-01-08T07:10:41;-3.20;59.30
52036;DHT22;38046;49.448;32.074;2023-01-08T07:13:06;-3.20;59.40
52036;DHT22;38046;49.448;32.074;2023-01-08T07:15:35;-3.20;59.50
52036;DHT22;38046;49.448;32.074;2023-01-08T07:18:03;-3.20;59.30
52036;DHT22;38046;49.448;32.074;2023-01-08T07:20:30;-3.20;58.90
52036;DHT22;38046;49.448;32.074;2023-01-08T07:23:03;-3.20;59.00
52036;DHT22;38046;49.448;32.074;2023-01-08T07:25:30;-3.20;58.60
52036;DHT22;38046;49.448;32.074;2023-01-08T07:27:56;-3.30;58.40
52036;DHT22;38046;49.448;32.074;2023-01-08T07:30:22;-3.30;58.50
52036;DHT22;38046;49.448;32.074;2023-01-08T07:32:47;-3.40;58.40
52036;DHT22;38046;49.448;32.074;2023-01-08T07:35:13;-3.40;58.40
52036;DHT22;38046;49.448;32.074;2023-01-08T07:37:39;-3.50;58.70
52036;DHT22;38046;49.448;32.074;2023-01-08T07:40:06;-3.50;59.00
52036;DHT22;38046;49.448;32.074;2023-01-08T07:42:32;-3.50;59.20
52036;DHT22;38046;49.448;32.074;2023-01-08T07:44:57;-3.50;59.30
52036;DHT22;38046;49.448;32.074;2023-01-08T07:47:23;-3.50;59.30
52036;DHT22;38046;49.448;32.074;2023-01-08T07:49:49;-3.40;59.60
52036;DHT22;38046;49.448;32.074;2023-01-08T07:52:14;-3.30;59.60
52036;DHT22;38046;49.448;32.074;2023-01-08T07:54:40;-3.20;59.40
52036;DHT22;38046;49.448;32.074;2023-01-08T07:57:06;-3.20;59.20
52036;DHT22;38046;49.448;32.074;2023-01-08T07:59:31;-3.10;59.00
52036;DHT22;38046;49.448;32.074;2023-01-08T08:01:57;-3.10;59.10
52036;DHT22;38046;49.448;32.074;2023-01-08T08:04:23;-3.10;59.00
52036;DHT22;38046;49.448;32.074;2023-01-08T08:06:49;-3.00;59.00
52036;DHT22;38046;49.448;32.074;2023-01-08T08:09:15;-3.00;59.00
52036;DHT22;38046;49.448;32.074;2023-01-08T08:11:40;-3.00;58.70
52036;DHT22;38046;49.448;32.074;2023-01-08T08:14:06;-3.10;58.70
52036;DHT22;38046;49.448;32.074;2023-01-08T08:16:32;-3.10;58.80
52036;DHT22;38046;49.448;32.074;2023-01-08T08:18:58;-3.10;58.60
52036;DHT22;38046;49.448;32.074;2023-01-08T08:21:24;-3.20;58.20
52036;DHT22;38046;49.448;32.074;2023-01-08T08:23:50;-3.30;58.60
52036;DHT22;38046;49.448;32.074;2023-01-08T08:26:16;-3.40;58.90
52036;DHT22;38046;49.448;32.074;2023-01-08T08:28:41;-3.40;58.80
52036;DHT22;38046;49.448;32.074;2023-01-08T08:31:07;-3.40;58.90
52036;DHT22;38046;49.448;32.074;2023-01-08T08:33:32;-3.40;58.90
52036;DHT22;38046;49.448;32.074;2023-01-08T08:35:58;-3.40;58.90
52036;DHT22;38046;49.448;32.074;2023-01-08T08:38:24;-3.30;59.10
52036;DHT22;38046;49.448;32.074;2023-01-08T08:40:50;-3.30;59.10
52036;DHT22;38046;49.448;32.074;2023-01-08T08:43:16;-3.20;58.90
52036;DHT22;38046;49.448;32.074;2023-01-08T08:45:42;-3.10;58.80
52036;DHT22;38046;49.448;32.074;2023-01-08T08:48:08;-3.10;58.60
52036;DHT22;38046;49.448;32.074;2023-01-08T08:50:34;-3.00;58.40
52036;DHT22;38046;49.448;32.074;2023-01-08T08:53:01;-3.00;58.10
52036;DHT22;38046;49.448;32.074;2023-01-08T08:55:27;-3.00;57.90
52036;DHT22;38046;49.448;32.074;2023-01-08T08:57:53;-3.10;57.90
52036;DHT22;38046;49.448;32.074;2023-01-08T09:00:19;-3.20;57.80
52036;DHT22;38046;49.448;32.074;2023-01-08T09:02:45;-3.30;58.00
52036;DHT22;38046;49.448;32.074;2023-01-08T09:05:11;-3.40;58.30
52036;DHT22;38046;49.448;32.074;2023-01-08T09:07:36;-3.40;58.40
52036;DHT22;38046;49.448;32.074;2023-01-08T09:10:03;-3.40;58.50
52036;DHT22;38046;49.448;32.074;2023-01-08T09:12:28;-3.40;58.80
52036;DHT22;38046;49.448;32.074;2023-01-08T09:14:54;-3.40;58.90
52036;DHT22;38046;49.448;32.074;2023-01-08T09:17:21;-3.50;58.50
52036;DHT22;38046;49.448;32.074;2023-01-08T09:19:47;-3.50;58.70
52036;DHT22;38046;49.448;32.074;2023-01-08T09:22:13;-3.60;58.90
52036;DHT22;38046;49.448;32.074;2023-01-08T09:24:38;-3.60;59.20
52036;DHT22;38046;49.448;32.074;2023-01-08T09:27:04;-3.60;59.50
52036;DHT22;38046;49.448;32.074;2023-01-08T09:29:30;-3.60;59.50
52036;DHT22;38046;49.448;32.074;2023-01-08T09:31:55;-3.60;59.60
52036;DHT22;38046;49.448;32.074;2023-01-08T09:34:24;-3.60;59.70
52036;DHT22;38046;49.448;32.074;2023-01-08T09:36:49;-3.70;59.70
52036;DHT22;38046;49.448;32.074;2023-01-08T09:39:15;-3.60;59.70
52036;DHT22;38046;49.448;32.074;2023-01-08T09:41:44;-3.60;59.60
52036;DHT22;38046;49.448;32.074;2023-01-08T09:44:17;-3.60;59.60
52036;DHT22;38046;49.448;32.074;2023-01-08T09:46:45;-3.60;59.70
52036;DHT22;38046;49.448;32.074;2023-01-08T09:49:20;-3.60;59.60
52036;DHT22;38046;49.448;32.074;2023-01-08T09:51:46;-3.70;59.70
52036;DHT22;38046;49.448;32.074;2023-01-08T09:54:15;-3.70;59.90
52036;DHT22;38046;49.448;32.074;2023-01-08T09:56:42;-3.70;60.00
52036;DHT22;38046;49.448;32.074;2023-01-08T09:59:12;-3.70;60.10
52036;DHT22;38046;49.448;32.074;2023-01-08T10:01:39;-3.70;60.20
52036;DHT22;38046;49.448;32.074;2023-01-08T10:06:43;-3.70;60.40
52036;DHT22;38046;49.448;32.074;2023-01-08T10:09:14;-3.60;60.70
52036;DHT22;38046;49.448;32.074;2023-01-08T10:11:42;-3.60;60.60
52036;DHT22;38046;49.448;32.074;2023-01-08T10:14:35;-3.50;60.60
52036;DHT22;38046;49.448;32.074;2023-01-08T10:17:06;-3.50;60.40
52036;DHT22;38046;49.448;32.074;2023-01-08T10:19:33;-3.60;60.30
52036;DHT22;38046;49.448;32.074;2023-01-08T10:21:58;-3.60;60.60
52036;DHT22;38046;49.448;32.074;2023-01-08T10:24:35;-3.50;60.50
52036;DHT22;38046;49.448;32.074;2023-01-08T10:27:12;-3.50;60.60
52036;DHT22;38046;49.448;32.074;2023-01-08T10:29:38;-3.50;60.50
52036;DHT22;38046;49.448;32.074;2023-01-08T10:32:15;-3.50;60.40
52036;DHT22;38046;49.448;32.074;2023-01-08T10:37:20;-3.40;60.40
52036;DHT22;38046;49.448;32.074;2023-01-08T10:39:47;-3.40;60.30
52036;DHT22;38046;49.448;32.074;2023-01-08T10:42:14;-3.40;60.20
52036;DHT22;38046;49.448;32.074;2023-01-08T10:47:43;-3.30;60.20
52036;DHT22;38046;49.448;32.074;2023-01-08T10:50:23;-3.30;60.10
52036;DHT22;38046;49.448;32.074;2023-01-08T10:52:55;-3.30;60.10
52036;DHT22;38046;49.448;32.074;2023-01-08T10:55:25;-3.30;60.00
52036;DHT22;38046;49.448;32.074;2023-01-08T10:57:59;-3.30;60.10
52036;DHT22;38046;49.448;32.074;2023-01-08T11:00:30;-3.20;60.20
52036;DHT22;38046;49.448;32.074;2023-01-08T11:03:05;-3.20;60.10
52036;DHT22;38046;49.448;32.074;2023-01-08T11:05:38;-3.30;60.00
52036;DHT22;38046;49.448;32.074;2023-01-08T11:08:06;-3.20;60.20
52036;DHT22;38046;49.448;32.074;2023-01-08T11:10:34;-3.20;60.20
52036;DHT22;38046;49.448;32.074;2023-01-08T11:13:03;-3.20;60.20
52036;DHT22;38046;49.448;32.074;2023-01-08T11:15:32;-3.10;60.10
52036;DHT22;38046;49.448;32.074;2023-01-08T11:20:34;-3.10;59.90
52036;DHT22;38046;49.448;32.074;2023-01-08T11:23:15;-3.10;59.90
52036;DHT22;38046;49.448;32.074;2023-01-08T11:34:05;-3.00;59.90
52036;DHT22;38046;49.448;32.074;2023-01-08T11:36:34;-3.00;59.90
52036;DHT22;38046;49.448;32.074;2023-01-08T11:39:01;-3.00;59.80
52036;DHT22;38046;49.448;32.074;2023-01-08T11:45:24;-3.00;59.80
52036;DHT22;38046;49.448;32.074;2023-01-08T11:50:34;-3.00;59.70
52036;DHT22;38046;49.448;32.074;2023-01-08T11:55:53;-3.00;59.90
52036;DHT22;38046;49.448;32.074;2023-01-08T12:12:02;-2.80;59.70
52036;DHT22;38046;49.448;32.074;2023-01-08T12:31:22;-2.60;59.70
52036;DHT22;38046;49.448;32.074;2023-01-08T12:34:14;-2.60;59.60
52036;DHT22;38046;49.448;32.074;2023-01-08T12:36:54;-2.60;59.40
52036;DHT22;38046;49.448;32.074;2023-01-08T12:39:31;-2.60;59.60
52036;DHT22;38046;49.448;32.074;2023-01-08T12:42:13;-2.60;59.70
52036;DHT22;38046;49.448;32.074;2023-01-08T12:44:41;-2.60;59.60
52036;DHT22;38046;49.448;32.074;2023-01-08T12:47:13;-2.60;59.60
52036;DHT22;38046;49.448;32.074;2023-01-08T12:49:47;-2.50;59.70
52036;DHT22;38046;49.448;32.074;2023-01-08T12:52:28;-2.50;59.50
52036;DHT22;38046;49.448;32.074;2023-01-08T12:55:32;-2.50;59.70
52036;DHT22;38046;49.448;32.074;2023-01-08T12:58:58;-2.50;59.70
52036;DHT22;38046;49.448;32.074;2023-01-08T13:01:05;-2.50;59.50
52036;DHT22;38046;49.448;32.074;2023-01-08T13:03:34;-2.50;59.20
52036;DHT22;38046;49.448;32.074;2023-01-08T13:06:13;-2.50;59.30
52036;DHT22;38046;49.448;32.074;2023-01-08T13:08:43;-2.60;59.30
52036;DHT22;38046;49.448;32.074;2023-01-08T13:11:10;-2.60;59.60
52036;DHT22;38046;49.448;32.074;2023-01-08T13:13:39;-2.50;59.90
52036;DHT22;38046;49.448;32.074;2023-01-08T13:16:18;-2.50;59.80
52036;DHT22;38046;49.448;32.074;2023-01-08T13:19:01;-2.40;59.70
52036;DHT22;38046;49.448;32.074;2023-01-08T13:21:40;-2.40;59.70
52036;DHT22;38046;49.448;32.074;2023-01-08T13:29:49;-2.30;59.60
52036;DHT22;38046;49.448;32.074;2023-01-08T13:32:36;-2.30;59.50
52036;DHT22;38046;49.448;32.074;2023-01-08T13:37:46;-2.30;59.10
52036;DHT22;38046;49.448;32.074;2023-01-08T13:43:00;-2.40;59.20
52036;DHT22;38046;49.448;32.074;2023-01-08T13:45:27;-2.30;59.20
52036;DHT22;38046;49.448;32.074;2023-01-08T13:47:54;-2.30;59.10
52036;DHT22;38046;49.448;32.074;2023-01-08T13:50:24;-2.30;59.90
52036;DHT22;38046;49.448;32.074;2023-01-08T13:52:58;-2.30;59.30
52036;DHT22;38046;49.448;32.074;2023-01-08T13:55:38;-2.30;59.20
52036;DHT22;38046;49.448;32.074;2023-01-08T13:58:16;-2.20;59.20
52036;DHT22;38046;49.448;32.074;2023-01-08T14:03:29;-2.20;58.90
52036;DHT22;38046;49.448;32.074;2023-01-08T14:08:58;-2.20;58.90
52036;DHT22;38046;49.448;32.074;2023-01-08T14:11:28;-2.10;58.60
52036;DHT22;38046;49.448;32.074;2023-01-08T14:13:55;-2.10;58.70
52036;DHT22;38046;49.448;32.074;2023-01-08T14:16:21;-2.10;58.60
52036;DHT22;38046;49.448;32.074;2023-01-08T14:18:47;-2.10;58.60
52036;DHT22;38046;49.448;32.074;2023-01-08T14:21:14;-2.10;58.40
52036;DHT22;38046;49.448;32.074;2023-01-08T14:23:46;-2.10;58.40
52036;DHT22;38046;49.448;32.074;2023-01-08T14:26:32;-2.10;58.40
52036;DHT22;38046;49.448;32.074;2023-01-08T14:29:00;-2.10;58.30
52036;DHT22;38046;49.448;32.074;2023-01-08T14:31:27;-2.10;58.20
52036;DHT22;38046;49.448;32.074;2023-01-08T14:33:54;-2.20;58.10
52036;DHT22;38046;49.448;32.074;2023-01-08T14:36:20;-2.20;58.40
52036;DHT22;38046;49.448;32.074;2023-01-08T14:38:46;-2.10;58.40
52036;DHT22;38046;49.448;32.074;2023-01-08T14:41:19;-2.10;58.20
52036;DHT22;38046;49.448;32.074;2023-01-08T14:43:48;-2.20;58.20
52036;DHT22;38046;49.448;32.074;2023-01-08T14:46:25;-2.20;58.10
52036;DHT22;38046;49.448;32.074;2023-01-08T14:48:52;-2.20;58.10
52036;DHT22;38046;49.448;32.074;2023-01-08T14:51:24;-2.20;57.70
52036;DHT22;38046;49.448;32.074;2023-01-08T14:53:51;-2.20;57.90
52036;DHT22;38046;49.448;32.074;2023-01-08T14:56:20;-2.30;57.40
52036;DHT22;38046;49.448;32.074;2023-01-08T14:58:48;-2.30;57.80
52036;DHT22;38046;49.448;32.074;2023-01-08T15:01:19;-2.30;58.00
52036;DHT22;38046;49.448;32.074;2023-01-08T15:03:47;-2.30;58.00
52036;DHT22;38046;49.448;32.074;2023-01-08T15:06:25;-2.30;57.70
52036;DHT22;38046;49.448;32.074;2023-01-08T15:08:51;-2.30;57.70
52036;DHT22;38046;49.448;32.074;2023-01-08T15:11:25;-2.30;57.60
52036;DHT22;38046;49.448;32.074;2023-01-08T15:13:52;-2.30;57.60
52036;DHT22;38046;49.448;32.074;2023-01-08T15:16:37;-2.40;57.40
52036;DHT22;38046;49.448;32.074;2023-01-08T15:19:13;-2.40;57.60
52036;DHT22;38046;49.448;32.074;2023-01-08T15:21:45;-2.40;57.80
52036;DHT22;38046;49.448;32.074;2023-01-08T15:24:28;-2.40;57.60
52036;DHT22;38046;49.448;32.074;2023-01-08T15:26:55;-2.40;57.70
52036;DHT22;38046;49.448;32.074;2023-01-08T15:29:30;-2.40;57.60
52036;DHT22;38046;49.448;32.074;2023-01-08T15:32:19;-2.40;58.40
52036;DHT22;38046;49.448;32.074;2023-01-08T15:34:46;-2.30;57.90
52036;DHT22;38046;49.448;32.074;2023-01-08T15:37:13;-2.40;57.70
52036;DHT22;38046;49.448;32.074;2023-01-08T15:39:39;-2.40;57.80
52036;DHT22;38046;49.448;32.074;2023-01-08T15:42:29;-2.50;57.90
52036;DHT22;38046;49.448;32.074;2023-01-08T15:45:22;-2.40;58.10
52036;DHT22;38046;49.448;32.074;2023-01-08T15:47:50;-2.40;58.20
52036;DHT22;38046;49.448;32.074;2023-01-08T15:50:16;-2.40;58.20
52036;DHT22;38046;49.448;32.074;2023-01-08T15:52:42;-2.40;58.20
52036;DHT22;38046;49.448;32.074;2023-01-08T15:55:22;-2.40;58.30
52036;DHT22;38046;49.448;32.074;2023-01-08T15:57:49;-2.40;58.20
52036;DHT22;38046;49.448;32.074;2023-01-08T16:00:16;-2.40;58.10
52036;DHT22;38046;49.448;32.074;2023-01-08T16:02:44;-2.40;58.20
52036;DHT22;38046;49.448;32.074;2023-01-08T16:05:10;-2.40;58.30
52036;DHT22;38046;49.448;32.074;2023-01-08T16:07:36;-2.40;58.30
52036;DHT22;38046;49.448;32.074;2023-01-08T16:10:02;-2.40;58.40
52036;DHT22;38046;49.448;32.074;2023-01-08T16:12:27;-2.40;58.30
52036;DHT22;38046;49.448;32.074;2023-01-08T16:14:53;-2.40;58.30
52036;DHT22;38046;49.448;32.074;2023-01-08T16:17:19;-2.50;58.30
52036;DHT22;38046;49.448;32.074;2023-01-08T16:19:44;-2.50;58.40
52036;DHT22;38046;49.448;32.074;2023-01-08T16:22:10;-2.50;58.30
52036;DHT22;38046;49.448;32.074;2023-01-08T16:24:35;-2.50;58.40
52036;DHT22;38046;49.448;32.074;2023-01-08T16:27:01;-2.50;58.50
52036;DHT22;38046;49.448;32.074;2023-01-08T16:29:27;-2.50;58.60
52036;DHT22;38046;49.448;32.074;2023-01-08T16:31:53;-2.60;58.60
52036;DHT22;38046;49.448;32.074;2023-01-08T16:34:19;-2.50;58.60
52036;DHT22;38046;49.448;32.074;2023-01-08T16:36:46;-2.60;58.60
52036;DHT22;38046;49.448;32.074;2023-01-08T16:39:12;-2.60;58.50
52036;DHT22;38046;49.448;32.074;2023-01-08T16:41:37;-2.60;58.60
52036;DHT22;38046;49.448;32.074;2023-01-08T16:44:03;-2.60;58.80
52036;DHT22;38046;49.448;32.074;2023-01-08T16:46:29;-2.60;58.80
52036;DHT22;38046;49.448;32.074;2023-01-08T16:48:54;-2.60;58.90
52036;DHT22;38046;49.448;32.074;2023-01-08T16:51:21;-2.60;58.90
52036;DHT22;38046;49.448;32.074;2023-01-08T16:53:49;-2.50;58.90
52036;DHT22;38046;49.448;32.074;2023-01-08T16:56:15;-2.50;59.40
52036;DHT22;38046;49.448;32.074;2023-01-08T16:58:40;-2.50;59.40
52036;DHT22;38046;49.448;32.074;2023-01-08T17:01:08;-2.50;58.80
52036;DHT22;38046;49.448;32.074;2023-01-08T17:03:34;-2.50;58.80